Welcome to Trans World Virtual Airlines!

Welcome TWVA's Newest Pilot:

TWA2305 Peter Rindlisbacher

Not a Trans World pilot yet?
Apply Now!




Sign-in with your pilot id or email, or register

Flight TWA216

  • Submitted By: Austin Hill
  • Departure Airport: Eppley Airfield (KOMA)
  • Arrival Airport: Lambert-Saint Louis International Airport (KSTL)
  • Aircraft: MD-83 (N44266TW)
  • Flight Time: 01.44
  • Date Submitted: 04/08/2018
  • Route: KOMA OVR J151 LMN IRK J253 STL KSTL
  • Status: Accepted
Flight Details
Gross Revenue:
(121 load / $ 95.00 per unit
$ 11, 495.00
Fuel Cost:
(11152 fuel used @ 0.8 / unit)
$ 8, 921.60

Additional Log Information:

View Log

FS[15:51] Aircraft Title - MD_83 Paint4
FS[15:51] Aircraft Model - MD83
FS[15:51] Flight Number TWA216
FS[15:51] Departure KOMA
FS[15:51] Destination KSTL
FS[15:51] Boarding
FS[16:04] Pushing Back
FS[16:08] Taxiing to Runway
FS[16:26] Taking Off
FS[16:26] Taking Off
FS[16:26] 175kts
FS[16:26] pitch angle 8 degrees
FS[16:26] 20800 (lbs) of fuel onboard
FS[16:26] Climbing
FS[16:41] TOC Reached
FS[16:41] Cruise 31000
FS[16:55] TOD Reached
FS[16:55] Descending
FS[17:08] On Approach
FS[17:15] Landing Rate -67fpm
FS[17:15] 12823 (lbs) of fuel onboard
FS[17:15] pitch angle 5 degrees
FS[17:15] Taxiing to Gate
FS[17:25] Arrived
FS[17:31] Max Sim Rate: 1x
FS[17:31] kACARS_Free Version 1.0.1.1

Comments

Commenter Comment
Austin Hill KOMA 081551Z 14719KT 10SM SCT055 OVC065 02/M08 A2990 // KSTL 081701Z 12007KT 10 SM FEW150 03/M07 A3011

Route Map